Time;durP1;ratioP1;P1;durP2;ratioP2;P2;SDS_P1;SDS_P2;PMS_P1;PMS_P2;Temp;Humidity;BMP_temperature;BMP_pressure;BME280_temperature;BME280_humidity;BME280_pressure;Samples;Min_cycle;Max_cycle;Signal;HPM_P1;HPM_P2
2022/01/18 00:02:05;;;;;;;;;;;6.20;99.90;;;;;;5113542;27;19935;-67
2022/01/18 00:04:30;;;;;;;;;;;6.20;99.90;;;;;;5111634;28;19932;-67
2022/01/18 00:06:56;;;;;;;;;;;6.10;99.90;;;;;;5111770;28;19928;-66
2022/01/18 00:09:24;;;;;;;;;;;6.20;99.90;;;;;;5093374;28;19928;-67
2022/01/18 00:12:00;;;;;;;;;;;6.10;99.90;;;;;;5094021;28;19924;-68
2022/01/18 00:14:40;;;;;;;;;;;6.10;99.90;;;;;;5113104;28;20014;-67
2022/01/18 00:17:29;;;;;;;;;;;6.00;99.90;;;;;;5112017;28;20304;-67
2022/01/18 00:19:55;;;;;;;;;;;6.00;99.90;;;;;;5098756;28;19928;-67
2022/01/18 00:22:22;;;;;;;;;;;6.00;99.90;;;;;;5092651;28;20027;-66
2022/01/18 00:24:48;;;;;;;;;;;6.00;99.90;;;;;;5090721;28;19936;-67
2022/01/18 00:27:16;;;;;;;;;;;5.90;99.90;;;;;;5085153;28;19970;-68
2022/01/18 00:30:16;;;;;;;;;;;5.90;99.90;;;;;;5090762;28;20277;-67
2022/01/18 00:34:56;;;;;;;;;;;5.80;99.90;;;;;;5111729;28;19958;-67
2022/01/18 00:37:27;;;;;;;;;;;5.90;99.90;;;;;;5112585;28;19924;-67
2022/01/18 00:39:52;;;;;;;;;;;5.80;99.90;;;;;;5093833;28;20270;-66
2022/01/18 00:42:18;;;;;;;;;;;5.70;99.90;;;;;;5108477;28;19977;-67
2022/01/18 00:44:44;;;;;;;;;;;5.70;99.90;;;;;;5093818;28;19923;-67
2022/01/18 00:47:09;;;;;;;;;;;5.70;99.90;;;;;;5112450;28;19923;-66
2022/01/18 00:49:41;;;;;;;;;;;5.70;99.90;;;;;;5093435;28;19932;-67
2022/01/18 00:52:07;;;;;;;;;;;5.70;99.90;;;;;;5105403;28;19928;-67
2022/01/18 00:54:38;;;;;;;;;;;5.70;99.90;;;;;;5091680;28;19930;-66
2022/01/18 00:57:05;;;;;;;;;;;5.70;99.90;;;;;;5074885;28;19928;-66
2022/01/18 00:59:30;;;;;;;;;;;5.60;99.90;;;;;;5115015;27;20018;-67
2022/01/18 01:01:56;;;;;;;;;;;5.60;99.90;;;;;;5093474;28;20007;-67
2022/01/18 01:04:25;;;;;;;;;;;5.80;99.90;;;;;;5110073;28;19928;-68
2022/01/18 01:06:50;;;;;;;;;;;5.60;99.90;;;;;;5094255;28;19928;-67
2022/01/18 01:09:16;;;;;;;;;;;5.60;99.90;;;;;;5110699;28;19935;-67
2022/01/18 01:11:42;;;;;;;;;;;5.70;99.90;;;;;;5110963;28;20380;-67
2022/01/18 01:14:12;;;;;;;;;;;5.70;99.90;;;;;;5096787;28;19924;-67
2022/01/18 01:32:13;;;;;;;;;;;5.70;99.90;;;;;;5079788;28;20523;-67
2022/01/18 01:46:41;;;;;;;;;;;5.40;99.90;;;;;;5112021;28;20021;-61
2022/01/18 01:49:12;;;;;;;;;;;5.40;99.90;;;;;;5111453;28;20052;-60
2022/01/18 01:51:37;;;;;;;;;;;5.40;99.90;;;;;;5110949;28;19923;-61
2022/01/18 01:54:06;;;;;;;;;;;5.40;99.90;;;;;;5112352;28;19968;-61
2022/01/18 01:56:32;;;;;;;;;;;5.40;99.90;;;;;;5111337;28;19924;-61
2022/01/18 01:58:58;;;;;;;;;;;5.50;99.90;;;;;;5110436;28;19924;-61
2022/01/18 02:01:24;;;;;;;;;;;5.50;99.90;;;;;;5112463;28;20020;-61
2022/01/18 02:03:49;;;;;;;;;;;5.50;99.90;;;;;;5111775;28;20046;-61
2022/01/18 02:06:15;;;;;;;;;;;5.50;99.90;;;;;;5094388;28;19928;-61
2022/01/18 02:08:42;;;;;;;;;;;5.50;99.90;;;;;;5112012;28;19930;-60
2022/01/18 02:11:07;;;;;;;;;;;5.50;99.90;;;;;;5112308;28;19924;-61
2022/01/18 02:13:33;;;;;;;;;;;5.50;99.90;;;;;;5112112;28;19969;-62
2022/01/18 02:23:59;;;;;;;;;;;5.70;99.90;;;;;;5111436;28;19965;-62
2022/01/18 02:26:25;;;;;;;;;;;5.70;99.90;;;;;;5111096;28;19923;-62
2022/01/18 02:28:50;;;;;;;;;;;5.70;99.90;;;;;;5111483;28;19923;-61
2022/01/18 02:31:18;;;;;;;;;;;5.70;99.90;;;;;;5111924;28;19994;-61
2022/01/18 02:33:44;;;;;;;;;;;5.70;99.90;;;;;;5110588;28;19972;-60
2022/01/18 02:36:09;;;;;;;;;;;5.80;99.90;;;;;;5112027;28;19928;-62
2022/01/18 02:38:35;;;;;;;;;;;5.80;99.90;;;;;;5112131;28;19932;-62
2022/01/18 02:41:01;;;;;;;;;;;5.80;99.90;;;;;;5111581;28;19924;-60
2022/01/18 02:46:11;;;;;;;;;;;5.80;99.90;;;;;;5111946;28;19986;-61
2022/01/18 02:48:37;;;;;;;;;;;5.90;99.90;;;;;;5112058;28;19974;-60
2022/01/18 02:51:03;;;;;;;;;;;5.90;99.90;;;;;;5112540;28;19924;-61
2022/01/18 02:53:29;;;;;;;;;;;5.90;99.90;;;;;;5115691;28;20265;-61
2022/01/18 02:55:56;;;;;;;;;;;5.90;99.90;;;;;;5115351;28;19923;-61
2022/01/18 02:58:28;;;;;;;;;;;5.90;99.90;;;;;;5115721;28;19924;-60
2022/01/18 03:03:38;;;;;;;;;;;6.00;99.90;;;;;;5114302;28;19924;-60
2022/01/18 03:06:05;;;;;;;;;;;6.00;99.90;;;;;;5115183;28;19923;-60
2022/01/18 03:08:31;;;;;;;;;;;6.00;99.90;;;;;;5114595;28;19923;-61
2022/01/18 03:10:57;;;;;;;;;;;6.00;99.90;;;;;;5115181;28;19924;-60
2022/01/18 03:13:23;;;;;;;;;;;6.00;99.90;;;;;;5115421;28;19924;-60
2022/01/18 03:15:49;;;;;;;;;;;6.00;99.90;;;;;;5114686;28;20376;-62
2022/01/18 03:18:15;;;;;;;;;;;6.00;99.90;;;;;;5115521;28;19924;-60
2022/01/18 03:20:40;;;;;;;;;;;6.00;99.90;;;;;;5114223;28;19932;-61
2022/01/18 03:23:10;;;;;;;;;;;6.00;99.90;;;;;;5113790;28;19932;-61
2022/01/18 03:28:06;;;;;;;;;;;6.00;99.90;;;;;;5113764;28;19946;-62
2022/01/18 03:30:39;;;;;;;;;;;6.00;99.90;;;;;;5114893;28;19928;-62
2022/01/18 03:33:06;;;;;;;;;;;6.00;99.90;;;;;;5114668;28;20166;-61
2022/01/18 03:35:32;;;;;;;;;;;6.00;99.90;;;;;;5113565;28;19924;-61
2022/01/18 03:37:58;;;;;;;;;;;6.00;99.90;;;;;;5113976;28;19924;-62
2022/01/18 03:40:24;;;;;;;;;;;6.10;99.90;;;;;;5114880;28;19976;-62
2022/01/18 03:42:51;;;;;;;;;;;6.10;99.90;;;;;;5113640;28;20361;-61
2022/01/18 03:45:43;;;;;;;;;;;6.10;99.90;;;;;;5113381;28;19924;-62
2022/01/18 03:48:18;;;;;;;;;;;6.10;99.90;;;;;;5114392;28;19923;-62
2022/01/18 03:50:44;;;;;;;;;;;6.10;99.90;;;;;;5114743;28;20326;-62
2022/01/18 03:53:11;;;;;;;;;;;6.10;99.90;;;;;;5113197;28;19928;-61
2022/01/18 03:55:37;;;;;;;;;;;6.10;99.90;;;;;;5113468;28;19981;-62
2022/01/18 03:58:02;;;;;;;;;;;6.10;99.90;;;;;;5114201;28;19960;-62
2022/01/18 04:00:28;;;;;;;;;;;6.10;99.90;;;;;;5096601;28;19931;-62
2022/01/18 04:02:54;;;;;;;;;;;6.10;99.90;;;;;;5114191;28;19924;-64
2022/01/18 04:05:20;;;;;;;;;;;6.10;99.90;;;;;;5114263;28;20022;-62
2022/01/18 04:07:46;;;;;;;;;;;6.10;99.90;;;;;;5114279;28;19981;-62
2022/01/18 04:10:13;;;;;;;;;;;6.10;99.90;;;;;;5114304;28;19924;-62
2022/01/18 04:12:39;;;;;;;;;;;6.10;99.90;;;;;;5113101;28;20376;-62
2022/01/18 04:15:08;;;;;;;;;;;6.00;99.90;;;;;;5113876;28;19938;-62
2022/01/18 04:28:57;;;;;;;;;;;6.10;99.90;;;;;;5113542;28;19931;-63
2022/01/18 04:30:58;;;;;;;;;;;6.10;99.90;;;;;;5105886;28;19924;-60
2022/01/18 04:33:23;;;;;;;;;;;6.10;99.90;;;;;;5113655;28;20423;-61
2022/01/18 04:35:49;;;;;;;;;;;6.00;99.90;;;;;;5113895;27;19953;-61
2022/01/18 04:38:15;;;;;;;;;;;6.10;99.90;;;;;;5112144;28;19924;-61
2022/01/18 04:40:44;;;;;;;;;;;6.10;99.90;;;;;;5113584;28;19976;-61
2022/01/18 04:48:40;;;;;;;;;;;6.20;99.90;;;;;;5112065;28;20305;-62
2022/01/18 04:51:07;;;;;;;;;;;6.20;99.90;;;;;;5113108;28;19928;-62
2022/01/18 04:53:34;;;;;;;;;;;6.30;99.90;;;;;;5113454;28;19920;-62
2022/01/18 04:56:04;;;;;;;;;;;6.20;99.90;;;;;;5113369;28;20375;-65
2022/01/18 04:58:30;;;;;;;;;;;6.20;99.90;;;;;;5113326;28;19949;-62
2022/01/18 05:00:58;;;;;;;;;;;6.20;99.90;;;;;;5112339;28;19923;-62
2022/01/18 05:03:24;;;;;;;;;;;6.30;99.90;;;;;;5111940;28;19943;-62
2022/01/18 05:05:51;;;;;;;;;;;6.20;99.90;;;;;;5113186;28;19920;-62
2022/01/18 05:08:18;;;;;;;;;;;6.30;99.90;;;;;;5112909;28;19924;-62
2022/01/18 05:10:50;;;;;;;;;;;6.20;99.90;;;;;;5111955;28;19927;-62
2022/01/18 05:16:20;;;;;;;;;;;6.30;99.90;;;;;;5112156;28;19920;-63
2022/01/18 05:19:05;;;;;;;;;;;6.30;99.90;;;;;;5112424;28;19971;-62
2022/01/18 05:22:56;;;;;;;;;;;6.30;99.90;;;;;;5112782;28;19931;-61
2022/01/18 05:24:18;;;;;;;;;;;6.30;99.90;;;;;;5112206;28;19924;-62
2022/01/18 05:26:43;;;;;;;;;;;6.30;99.90;;;;;;5112683;28;20369;-62
2022/01/18 05:29:09;;;;;;;;;;;6.30;99.90;;;;;;5112530;28;19924;-62
2022/01/18 05:31:35;;;;;;;;;;;6.30;99.90;;;;;;5112609;28;20332;-61
2022/01/18 05:34:00;;;;;;;;;;;6.30;99.90;;;;;;5112862;28;19924;-62
2022/01/18 05:36:27;;;;;;;;;;;6.30;99.90;;;;;;5094662;28;19935;-61
2022/01/18 05:38:53;;;;;;;;;;;6.30;99.90;;;;;;5111877;28;19946;-62
2022/01/18 05:41:18;;;;;;;;;;;6.30;99.90;;;;;;5111133;28;19928;-62
2022/01/18 05:43:44;;;;;;;;;;;6.30;99.90;;;;;;5112519;28;20334;-62
2022/01/18 05:46:10;;;;;;;;;;;6.30;99.90;;;;;;5112296;28;19924;-62
2022/01/18 05:48:35;;;;;;;;;;;6.30;99.90;;;;;;5112633;28;19927;-63
2022/01/18 05:51:01;;;;;;;;;;;6.30;99.90;;;;;;5111321;28;19924;-62
2022/01/18 05:53:27;;;;;;;;;;;6.30;99.90;;;;;;5110767;28;20089;-62
2022/01/18 05:55:53;;;;;;;;;;;6.30;99.90;;;;;;5094494;28;20010;-61
2022/01/18 05:58:19;;;;;;;;;;;6.30;99.90;;;;;;5110996;28;20258;-60
2022/01/18 06:00:52;;;;;;;;;;;6.40;99.90;;;;;;5111467;28;20326;-61
2022/01/18 06:03:26;;;;;;;;;;;6.40;99.90;;;;;;5112036;28;19930;-62
2022/01/18 06:08:36;;;;;;;;;;;6.40;99.90;;;;;;5112326;28;19927;-62
2022/01/18 06:11:01;;;;;;;;;;;6.40;99.90;;;;;;5094435;28;19924;-61
2022/01/18 06:13:28;;;;;;;;;;;6.30;99.90;;;;;;5112072;28;19934;-61
2022/01/18 06:15:54;;;;;;;;;;;6.30;99.90;;;;;;5112356;28;19931;-62
2022/01/18 06:18:20;;;;;;;;;;;6.30;99.90;;;;;;5110734;28;19924;-62
2022/01/18 06:20:45;;;;;;;;;;;6.30;99.90;;;;;;5112197;28;19928;-61
2022/01/18 06:23:11;;;;;;;;;;;6.40;99.90;;;;;;5110835;28;20391;-60
2022/01/18 06:25:37;;;;;;;;;;;6.30;99.90;;;;;;5111634;28;19954;-61
2022/01/18 06:28:02;;;;;;;;;;;6.30;99.90;;;;;;5116146;28;19923;-61
2022/01/18 06:30:28;;;;;;;;;;;6.40;99.90;;;;;;5115836;28;20266;-60
2022/01/18 06:32:54;;;;;;;;;;;6.40;99.90;;;;;;5114575;28;20458;-60
2022/01/18 06:35:19;;;;;;;;;;;6.40;99.90;;;;;;5115619;28;19977;-60
2022/01/18 06:37:45;;;;;;;;;;;6.40;99.90;;;;;;5115714;28;19961;-60
2022/01/18 06:40:11;;;;;;;;;;;6.40;99.90;;;;;;5115782;28;19924;-61
2022/01/18 06:42:37;;;;;;;;;;;6.40;99.90;;;;;;5114672;28;19931;-61
2022/01/18 06:45:03;;;;;;;;;;;6.40;99.90;;;;;;5115831;28;19947;-61
2022/01/18 06:47:29;;;;;;;;;;;6.50;99.90;;;;;;5114978;28;19924;-61
2022/01/18 06:49:54;;;;;;;;;;;6.50;99.90;;;;;;5080567;28;19974;-62
2022/01/18 06:52:20;;;;;;;;;;;6.40;99.90;;;;;;5114490;28;19931;-62
2022/01/18 06:54:46;;;;;;;;;;;6.40;99.90;;;;;;5097638;28;19975;-60
2022/01/18 06:57:11;;;;;;;;;;;6.40;99.90;;;;;;5114610;28;19924;-60
2022/01/18 06:59:37;;;;;;;;;;;6.40;99.90;;;;;;5115194;28;19919;-62
2022/01/18 07:02:03;;;;;;;;;;;6.40;99.90;;;;;;5115603;28;19942;-60
2022/01/18 07:04:29;;;;;;;;;;;6.40;99.90;;;;;;5114914;28;20384;-60
2022/01/18 07:06:54;;;;;;;;;;;6.40;99.90;;;;;;5115350;28;19923;-60
2022/01/18 07:09:23;;;;;;;;;;;6.40;99.90;;;;;;5115048;28;19923;-61
2022/01/18 07:11:56;;;;;;;;;;;6.40;99.90;;;;;;5115134;28;20002;-61
2022/01/18 07:14:22;;;;;;;;;;;6.40;99.90;;;;;;5113954;28;20015;-61
2022/01/18 07:16:48;;;;;;;;;;;6.40;99.90;;;;;;5115252;28;20010;-61
2022/01/18 07:19:13;;;;;;;;;;;6.40;99.90;;;;;;5115122;28;20014;-61
2022/01/18 07:21:39;;;;;;;;;;;6.30;99.90;;;;;;5113401;28;19924;-61
2022/01/18 07:24:14;;;;;;;;;;;6.40;99.90;;;;;;5114930;28;19949;-61
2022/01/18 07:26:40;;;;;;;;;;;6.40;99.90;;;;;;5113692;28;19931;-62
2022/01/18 07:29:06;;;;;;;;;;;6.40;99.90;;;;;;5114859;28;20360;-62
2022/01/18 07:31:31;;;;;;;;;;;6.40;99.90;;;;;;5114162;28;19924;-62
2022/01/18 07:33:57;;;;;;;;;;;6.40;99.90;;;;;;5113282;28;19924;-62
2022/01/18 07:36:22;;;;;;;;;;;6.40;99.90;;;;;;5112736;28;19931;-64
2022/01/18 07:38:48;;;;;;;;;;;6.40;99.90;;;;;;5114022;28;20001;-63
2022/01/18 07:41:14;;;;;;;;;;;6.40;99.90;;;;;;5113304;28;19931;-61
2022/01/18 07:43:40;;;;;;;;;;;6.30;99.90;;;;;;5113910;28;19969;-61
2022/01/18 07:46:06;;;;;;;;;;;6.40;99.90;;;;;;5114142;28;20354;-61
2022/01/18 07:48:32;;;;;;;;;;;6.40;99.90;;;;;;5113768;28;19924;-61
2022/01/18 07:50:58;;;;;;;;;;;6.40;99.90;;;;;;5113443;28;19924;-62
2022/01/18 07:53:24;;;;;;;;;;;6.30;99.90;;;;;;5113524;28;20297;-62
2022/01/18 07:55:50;;;;;;;;;;;6.30;99.90;;;;;;5114521;28;19971;-62
2022/01/18 07:58:16;;;;;;;;;;;6.30;99.90;;;;;;5114433;28;19977;-62
2022/01/18 08:00:41;;;;;;;;;;;6.30;99.90;;;;;;5113865;28;19924;-61
2022/01/18 08:03:08;;;;;;;;;;;6.30;99.90;;;;;;5114181;27;19946;-61
2022/01/18 08:05:33;;;;;;;;;;;6.30;99.90;;;;;;5113529;28;20027;-61
2022/01/18 08:07:59;;;;;;;;;;;6.30;99.90;;;;;;5113736;28;20003;-62
2022/01/18 08:10:30;;;;;;;;;;;6.20;99.90;;;;;;5113841;28;19975;-63
2022/01/18 08:13:01;;;;;;;;;;;6.20;99.90;;;;;;5113602;28;19934;-63
2022/01/18 08:15:29;;;;;;;;;;;6.20;99.90;;;;;;5113828;28;19928;-62
2022/01/18 08:17:55;;;;;;;;;;;6.20;99.90;;;;;;5113557;28;19923;-63
2022/01/18 08:20:21;;;;;;;;;;;6.20;99.90;;;;;;5113700;28;19968;-62
2022/01/18 08:22:46;;;;;;;;;;;6.20;99.90;;;;;;5113274;28;19924;-62
2022/01/18 08:25:14;;;;;;;;;;;6.20;99.90;;;;;;5112107;28;20352;-62
2022/01/18 08:27:40;;;;;;;;;;;6.20;99.90;;;;;;5112380;28;20348;-61
2022/01/18 08:30:07;;;;;;;;;;;6.20;99.90;;;;;;5113578;28;19927;-61
2022/01/18 08:32:32;;;;;;;;;;;6.20;99.90;;;;;;5112876;28;19939;-62
2022/01/18 08:34:58;;;;;;;;;;;6.20;99.90;;;;;;5113230;28;19946;-62
2022/01/18 08:37:23;;;;;;;;;;;6.20;99.90;;;;;;5112308;28;19923;-62
2022/01/18 08:39:49;;;;;;;;;;;6.30;99.90;;;;;;5112676;28;19924;-62
2022/01/18 08:42:15;;;;;;;;;;;6.30;99.90;;;;;;5112795;28;20111;-60
2022/01/18 08:44:43;;;;;;;;;;;6.30;99.90;;;;;;5112103;28;19923;-60
2022/01/18 08:47:12;;;;;;;;;;;6.30;99.90;;;;;;5112784;28;20375;-61
2022/01/18 08:49:38;;;;;;;;;;;6.40;99.90;;;;;;5111242;28;19979;-61
2022/01/18 08:52:04;;;;;;;;;;;6.40;99.90;;;;;;5111908;28;20381;-62
2022/01/18 08:54:30;;;;;;;;;;;6.40;99.90;;;;;;5112689;28;20007;-61
2022/01/18 08:56:56;;;;;;;;;;;6.40;99.90;;;;;;5111949;28;19928;-62
2022/01/18 08:59:22;;;;;;;;;;;6.40;99.90;;;;;;5112582;28;19930;-61
2022/01/18 09:01:48;;;;;;;;;;;6.40;99.90;;;;;;5112457;28;19924;-62
2022/01/18 09:04:13;;;;;;;;;;;6.40;99.90;;;;;;5112570;27;19970;-61
2022/01/18 09:06:40;;;;;;;;;;;6.40;99.90;;;;;;5094003;28;19974;-61
2022/01/18 09:09:07;;;;;;;;;;;6.50;99.90;;;;;;5112664;28;19927;-61
2022/01/18 09:11:33;;;;;;;;;;;6.50;99.90;;;;;;5111209;28;19923;-61
2022/01/18 09:13:58;;;;;;;;;;;6.60;99.90;;;;;;5111996;28;19930;-62
2022/01/18 09:16:24;;;;;;;;;;;6.60;99.90;;;;;;5112270;28;19930;-62
2022/01/18 09:18:50;;;;;;;;;;;6.60;99.90;;;;;;5110921;28;19966;-63
2022/01/18 09:21:16;;;;;;;;;;;6.60;99.90;;;;;;5112659;28;19928;-62
2022/01/18 09:23:42;;;;;;;;;;;6.70;99.90;;;;;;5110923;28;19924;-62
2022/01/18 09:26:08;;;;;;;;;;;6.60;99.90;;;;;;5112591;28;19993;-62
2022/01/18 09:28:34;;;;;;;;;;;6.70;99.90;;;;;;5112321;28;19931;-62
2022/01/18 09:31:00;;;;;;;;;;;6.70;99.90;;;;;;5111129;28;19923;-63
2022/01/18 09:33:26;;;;;;;;;;;6.80;99.90;;;;;;5112106;28;19981;-63
2022/01/18 09:35:51;;;;;;;;;;;6.80;99.90;;;;;;5111962;28;20089;-62
2022/01/18 09:38:17;;;;;;;;;;;6.80;99.90;;;;;;5112296;28;19969;-62
2022/01/18 09:40:45;;;;;;;;;;;6.90;99.90;;;;;;5110680;28;19949;-62
2022/01/18 09:43:13;;;;;;;;;;;7.00;99.90;;;;;;5111325;28;20002;-62
2022/01/18 09:45:41;;;;;;;;;;;7.10;99.90;;;;;;5112257;28;19930;-62
2022/01/18 09:48:07;;;;;;;;;;;7.10;99.90;;;;;;5112381;28;20357;-62
2022/01/18 09:50:35;;;;;;;;;;;7.00;99.90;;;;;;5112356;28;20327;-62
2022/01/18 09:53:01;;;;;;;;;;;7.10;99.90;;;;;;5112010;28;19931;-62
2022/01/18 09:55:28;;;;;;;;;;;7.10;99.90;;;;;;5112399;28;19924;-62
2022/01/18 09:57:54;;;;;;;;;;;7.10;99.90;;;;;;5111879;28;19924;-61
2022/01/18 10:00:21;;;;;;;;;;;7.10;99.90;;;;;;5113796;28;20211;-62
2022/01/18 10:02:47;;;;;;;;;;;7.10;99.90;;;;;;5115950;28;20003;-62
2022/01/18 10:05:18;;;;;;;;;;;7.10;99.90;;;;;;5116054;28;20443;-62
2022/01/18 10:07:45;;;;;;;;;;;7.10;99.90;;;;;;5115951;28;19923;-66
2022/01/18 10:10:10;;;;;;;;;;;7.20;99.90;;;;;;5116091;27;20437;-62
2022/01/18 10:12:36;;;;;;;;;;;7.20;99.90;;;;;;5116325;28;20018;-64
2022/01/18 10:15:04;;;;;;;;;;;7.30;99.90;;;;;;5115761;28;19924;-62
2022/01/18 10:17:35;;;;;;;;;;;7.30;99.90;;;;;;5116113;28;19924;-62
2022/01/18 10:20:17;;;;;;;;;;;7.40;99.90;;;;;;5115642;28;19932;-62
2022/01/18 10:22:48;;;;;;;;;;;7.40;99.90;;;;;;5116009;28;19928;-62
2022/01/18 10:25:14;;;;;;;;;;;7.50;99.90;;;;;;5115905;28;20022;-62
2022/01/18 10:27:39;;;;;;;;;;;7.50;99.90;;;;;;5115654;28;19986;-63
2022/01/18 10:30:06;;;;;;;;;;;7.50;99.90;;;;;;5115253;28;19930;-63
2022/01/18 10:32:38;;;;;;;;;;;7.50;99.90;;;;;;5116016;28;20026;-66
2022/01/18 10:35:09;;;;;;;;;;;7.50;99.90;;;;;;5115620;28;19930;-63
2022/01/18 10:37:38;;;;;;;;;;;7.50;99.90;;;;;;5114789;28;20010;-63
2022/01/18 10:40:06;;;;;;;;;;;7.50;99.90;;;;;;5097265;28;20380;-63
2022/01/18 10:42:39;;;;;;;;;;;7.60;99.90;;;;;;5115739;28;20254;-64
2022/01/18 10:45:08;;;;;;;;;;;7.60;99.90;;;;;;5115897;28;19947;-63
2022/01/18 10:47:34;;;;;;;;;;;7.60;99.90;;;;;;5115106;28;19924;-63
2022/01/18 10:50:08;;;;;;;;;;;7.60;99.90;;;;;;5113513;28;19931;-64
2022/01/18 10:52:33;;;;;;;;;;;7.60;99.90;;;;;;5115246;28;19923;-64
2022/01/18 10:55:00;;;;;;;;;;;7.60;99.90;;;;;;5096923;28;19931;-63
2022/01/18 10:57:25;;;;;;;;;;;7.50;99.90;;;;;;5114327;28;19928;-64
2022/01/18 10:59:58;;;;;;;;;;;7.50;99.90;;;;;;5114988;28;20373;-63
2022/01/18 11:02:24;;;;;;;;;;;7.40;99.90;;;;;;5115190;28;19923;-64
2022/01/18 11:04:51;;;;;;;;;;;7.40;99.90;;;;;;5113990;28;19978;-64
2022/01/18 11:07:18;;;;;;;;;;;7.40;99.90;;;;;;5115295;28;19930;-64
2022/01/18 11:09:44;;;;;;;;;;;7.40;99.90;;;;;;5114352;28;20307;-64
2022/01/18 11:12:10;;;;;;;;;;;7.40;99.90;;;;;;5113447;28;20373;-63
2022/01/18 11:14:38;;;;;;;;;;;7.40;99.90;;;;;;5115105;28;20280;-62
2022/01/18 11:17:05;;;;;;;;;;;7.40;99.90;;;;;;5113286;28;19923;-62
2022/01/18 11:19:34;;;;;;;;;;;7.40;99.90;;;;;;5114601;28;20288;-62
2022/01/18 11:22:06;;;;;;;;;;;7.50;99.90;;;;;;5113306;28;19924;-62
2022/01/18 11:24:34;;;;;;;;;;;7.50;99.90;;;;;;5115385;28;19924;-62
2022/01/18 11:27:01;;;;;;;;;;;7.40;99.90;;;;;;5114707;28;19923;-62
2022/01/18 11:29:26;;;;;;;;;;;7.40;99.90;;;;;;5113859;28;19924;-62
2022/01/18 11:31:53;;;;;;;;;;;7.40;99.90;;;;;;5114849;28;20387;-62
2022/01/18 11:34:34;;;;;;;;;;;7.30;99.90;;;;;;5114865;28;19931;-62
2022/01/18 11:37:08;;;;;;;;;;;7.30;99.90;;;;;;5113116;28;20014;-62
2022/01/18 11:39:33;;;;;;;;;;;7.40;99.90;;;;;;5114897;28;19975;-62
2022/01/18 11:42:04;;;;;;;;;;;7.40;99.90;;;;;;5112990;28;19981;-62
2022/01/18 11:44:30;;;;;;;;;;;7.40;99.90;;;;;;5114636;28;20391;-62
2022/01/18 11:46:55;;;;;;;;;;;7.40;99.90;;;;;;5113113;28;19927;-64
2022/01/18 11:49:22;;;;;;;;;;;7.40;99.90;;;;;;5114475;28;20315;-62
2022/01/18 11:51:52;;;;;;;;;;;7.40;99.90;;;;;;5114543;28;19995;-62
2022/01/18 11:54:45;;;;;;;;;;;7.50;99.90;;;;;;5114048;28;19930;-62
2022/01/18 11:57:27;;;;;;;;;;;7.50;99.90;;;;;;5114186;28;20014;-62
2022/01/18 11:59:52;;;;;;;;;;;7.50;99.90;;;;;;5113443;28;19931;-62
2022/01/18 12:02:29;;;;;;;;;;;7.50;99.90;;;;;;5114087;28;20372;-62
2022/01/18 12:04:57;;;;;;;;;;;7.50;99.90;;;;;;5112999;28;19928;-62
2022/01/18 12:07:36;;;;;;;;;;;7.50;99.90;;;;;;5112861;28;20339;-62
2022/01/18 12:10:05;;;;;;;;;;;7.40;99.90;;;;;;5113834;28;19924;-62
2022/01/18 12:12:40;;;;;;;;;;;7.50;99.90;;;;;;5114179;28;20022;-61
2022/01/18 12:15:18;;;;;;;;;;;7.60;99.90;;;;;;5113796;28;20381;-60
2022/01/18 12:17:57;;;;;;;;;;;7.60;99.90;;;;;;5114121;28;20368;-61
2022/01/18 12:20:32;;;;;;;;;;;7.60;99.90;;;;;;5113503;28;19930;-61
2022/01/18 12:23:07;;;;;;;;;;;7.50;99.90;;;;;;5113509;28;19924;-60
2022/01/18 12:25:35;;;;;;;;;;;7.40;99.90;;;;;;5112299;28;20428;-60
2022/01/18 12:28:21;;;;;;;;;;;7.50;99.90;;;;;;5114274;28;19969;-61
2022/01/18 12:31:05;;;;;;;;;;;7.40;99.90;;;;;;5113570;28;20018;-61
2022/01/18 12:33:42;;;;;;;;;;;7.40;99.90;;;;;;5113636;28;19924;-61
2022/01/18 12:36:28;;;;;;;;;;;7.40;99.90;;;;;;5111841;28;19923;-62
2022/01/18 12:38:57;;;;;;;;;;;7.40;99.90;;;;;;5113672;28;19924;-61
2022/01/18 12:41:39;;;;;;;;;;;7.40;99.90;;;;;;5113375;28;19924;-62
2022/01/18 12:44:20;;;;;;;;;;;7.40;99.90;;;;;;5111849;28;20331;-61
2022/01/18 12:47:04;;;;;;;;;;;7.40;99.90;;;;;;5113230;28;19923;-62
2022/01/18 12:49:31;;;;;;;;;;;7.40;99.90;;;;;;5112363;28;19935;-62
2022/01/18 12:51:57;;;;;;;;;;;7.40;99.90;;;;;;5113413;28;20281;-61
2022/01/18 12:54:35;;;;;;;;;;;7.40;99.90;;;;;;5113026;28;19924;-61
2022/01/18 12:57:11;;;;;;;;;;;7.30;99.90;;;;;;5113231;28;19935;-61
2022/01/18 12:59:56;;;;;;;;;;;7.30;99.90;;;;;;5113246;28;19920;-61
2022/01/18 13:02:22;;;;;;;;;;;7.30;99.90;;;;;;5112279;28;19924;-63
2022/01/18 13:04:56;;;;;;;;;;;7.40;99.90;;;;;;5111583;28;19927;-62
2022/01/18 13:07:22;;;;;;;;;;;7.40;99.90;;;;;;5112851;28;19931;-63
2022/01/18 13:09:57;;;;;;;;;;;7.40;99.90;;;;;;5112097;28;19924;-63
2022/01/18 13:12:29;;;;;;;;;;;7.40;99.90;;;;;;5112519;28;20061;-63
2022/01/18 13:14:56;;;;;;;;;;;7.50;99.90;;;;;;5112559;28;20448;-63
2022/01/18 13:23:46;;;;;;;;;;;7.50;99.90;;;;;;5112673;28;19971;-63
2022/01/18 13:26:12;;;;;;;;;;;7.50;99.90;;;;;;5094129;28;19930;-63
2022/01/18 13:28:39;;;;;;;;;;;7.60;99.90;;;;;;5112031;28;19975;-64
2022/01/18 13:31:14;;;;;;;;;;;7.60;99.90;;;;;;5111325;28;19924;-63
2022/01/18 13:33:49;;;;;;;;;;;7.60;99.90;;;;;;5112777;28;19974;-64
2022/01/18 13:36:15;;;;;;;;;;;7.60;99.90;;;;;;5111112;28;19924;-64
2022/01/18 13:38:40;;;;;;;;;;;7.60;99.90;;;;;;5111103;28;19923;-64
2022/01/18 13:41:07;;;;;;;;;;;7.60;99.90;;;;;;5111321;28;20369;-63
2022/01/18 13:43:33;;;;;;;;;;;7.60;99.90;;;;;;5110970;28;19972;-63
2022/01/18 13:46:00;;;;;;;;;;;7.50;99.90;;;;;;5111809;28;20275;-63
2022/01/18 13:48:33;;;;;;;;;;;7.40;99.90;;;;;;5110021;28;20372;-63
2022/01/18 13:51:07;;;;;;;;;;;7.50;99.90;;;;;;5112258;28;20335;-62
2022/01/18 13:53:34;;;;;;;;;;;7.50;99.90;;;;;;5111315;28;19924;-63
2022/01/18 13:56:01;;;;;;;;;;;7.50;99.90;;;;;;5111858;28;20308;-63
2022/01/18 13:58:28;;;;;;;;;;;7.50;99.90;;;;;;5111845;28;20347;-63
2022/01/18 14:01:28;;;;;;;;;;;7.50;99.90;;;;;;5094068;28;19954;-63
2022/01/18 14:03:55;;;;;;;;;;;7.50;99.90;;;;;;5096567;28;20375;-64
2022/01/18 14:06:31;;;;;;;;;;;7.50;99.90;;;;;;5111922;28;20368;-65
2022/01/18 14:08:57;;;;;;;;;;;7.40;99.90;;;;;;5111753;28;19923;-62
2022/01/18 14:11:23;;;;;;;;;;;7.30;99.90;;;;;;5111544;28;19965;-63
2022/01/18 14:13:50;;;;;;;;;;;7.20;99.90;;;;;;5112060;28;19924;-63
2022/01/18 14:16:19;;;;;;;;;;;7.20;99.90;;;;;;5110726;28;20381;-65
2022/01/18 14:18:58;;;;;;;;;;;7.20;99.90;;;;;;5111762;28;19959;-63
2022/01/18 14:21:24;;;;;;;;;;;7.20;99.90;;;;;;5110704;28;19924;-63
2022/01/18 14:24:04;;;;;;;;;;;7.20;99.90;;;;;;5110854;28;19924;-63
2022/01/18 14:26:30;;;;;;;;;;;7.30;99.90;;;;;;5111804;28;19976;-63
2022/01/18 14:29:00;;;;;;;;;;;7.30;99.90;;;;;;5110887;28;20022;-63
2022/01/18 14:31:25;;;;;;;;;;;7.30;99.90;;;;;;5110757;28;19928;-63
2022/01/18 14:33:51;;;;;;;;;;;7.30;99.90;;;;;;5110946;28;19928;-63
2022/01/18 14:36:16;;;;;;;;;;;7.20;99.90;;;;;;5111983;28;19924;-63
2022/01/18 14:38:42;;;;;;;;;;;7.20;99.90;;;;;;5111832;28;20024;-64
2022/01/18 14:41:18;;;;;;;;;;;7.20;99.90;;;;;;5110839;28;19924;-63
2022/01/18 14:43:43;;;;;;;;;;;7.10;99.90;;;;;;5111864;28;19923;-63
2022/01/18 14:49:07;;;;;;;;;;;7.00;99.90;;;;;;5091853;28;19927;-64
2022/01/18 14:51:33;;;;;;;;;;;7.00;99.90;;;;;;5115452;28;20445;-63
2022/01/18 14:53:59;;;;;;;;;;;6.90;99.90;;;;;;5114564;28;19924;-63
2022/01/18 14:56:24;;;;;;;;;;;6.90;99.90;;;;;;5115159;28;19924;-64
2022/01/18 14:58:50;;;;;;;;;;;6.90;99.90;;;;;;5115512;28;19924;-64
2022/01/18 15:01:16;;;;;;;;;;;6.90;99.90;;;;;;5115667;28;19939;-63
2022/01/18 15:03:42;;;;;;;;;;;6.90;99.90;;;;;;5115044;28;19920;-62
2022/01/18 15:06:08;;;;;;;;;;;6.90;99.90;;;;;;5112063;28;19923;-66
2022/01/18 15:08:34;;;;;;;;;;;6.90;99.90;;;;;;5114003;28;19924;-64
2022/01/18 15:11:00;;;;;;;;;;;6.90;99.90;;;;;;5110631;28;19923;-64
2022/01/18 15:13:26;;;;;;;;;;;6.90;99.90;;;;;;5114594;28;20411;-63
2022/01/18 15:15:52;;;;;;;;;;;6.90;99.90;;;;;;5112433;28;19927;-65
2022/01/18 15:18:18;;;;;;;;;;;6.90;99.90;;;;;;5112145;28;19924;-63
2022/01/18 15:20:43;;;;;;;;;;;6.80;99.90;;;;;;5113483;28;20395;-63
2022/01/18 15:23:15;;;;;;;;;;;6.80;99.90;;;;;;5114486;28;19947;-63
2022/01/18 15:25:40;;;;;;;;;;;6.80;99.90;;;;;;5113139;28;20361;-63
2022/01/18 15:28:06;;;;;;;;;;;6.70;99.90;;;;;;5115011;28;19930;-63
2022/01/18 15:30:32;;;;;;;;;;;6.60;99.90;;;;;;5114458;28;19924;-63
2022/01/18 15:32:58;;;;;;;;;;;6.70;99.90;;;;;;5115005;28;20018;-63
2022/01/18 15:35:24;;;;;;;;;;;6.60;99.90;;;;;;5114958;28;20018;-63
2022/01/18 15:37:50;;;;;;;;;;;6.60;99.90;;;;;;5113298;28;20040;-64
2022/01/18 15:40:16;;;;;;;;;;;6.50;99.90;;;;;;5114603;28;19979;-63
2022/01/18 15:42:42;;;;;;;;;;;6.40;99.90;;;;;;5114644;28;19930;-63
2022/01/18 15:45:08;;;;;;;;;;;6.30;99.90;;;;;;5114572;28;19924;-63
2022/01/18 15:47:34;;;;;;;;;;;6.30;99.90;;;;;;5114045;28;19939;-63
2022/01/18 15:50:00;;;;;;;;;;;6.30;99.90;;;;;;5113688;28;19924;-63
2022/01/18 15:52:26;;;;;;;;;;;6.20;99.90;;;;;;5113539;28;19928;-63
2022/01/18 15:54:52;;;;;;;;;;;6.20;99.90;;;;;;5113385;28;19924;-63